sensor_id;sensor_type;location;lat;lon;timestamp;P1;durP1;ratioP1;P2;durP2;ratioP2
19965;SDS011;10144;50.874;4.762;2023-02-18T00:04:53;26.60;;;10.83;;
19965;SDS011;10144;50.874;4.762;2023-02-18T00:10:47;29.00;;;11.10;;
19965;SDS011;10144;50.874;4.762;2023-02-18T00:16:42;27.10;;;10.33;;
19965;SDS011;10144;50.874;4.762;2023-02-18T00:22:33;27.57;;;10.17;;
19965;SDS011;10144;50.874;4.762;2023-02-18T00:31:32;33.77;;;10.40;;
19965;SDS011;10144;50.874;4.762;2023-02-18T00:37:21;24.47;;;9.27;;
19965;SDS011;10144;50.874;4.762;2023-02-18T00:45:48;25.27;;;8.73;;
19965;SDS011;10144;50.874;4.762;2023-02-18T00:51:36;22.63;;;8.80;;
19965;SDS011;10144;50.874;4.762;2023-02-18T00:57:29;18.20;;;7.57;;
19965;SDS011;10144;50.874;4.762;2023-02-18T01:03:20;19.70;;;7.07;;
19965;SDS011;10144;50.874;4.762;2023-02-18T01:09:17;15.43;;;6.27;;
19965;SDS011;10144;50.874;4.762;2023-02-18T01:15:05;18.03;;;6.50;;
19965;SDS011;10144;50.874;4.762;2023-02-18T01:20:55;13.90;;;5.97;;
19965;SDS011;10144;50.874;4.762;2023-02-18T01:26:44;12.47;;;5.10;;
19965;SDS011;10144;50.874;4.762;2023-02-18T01:32:32;7.63;;;3.67;;
19965;SDS011;10144;50.874;4.762;2023-02-18T01:38:28;7.13;;;3.40;;
19965;SDS011;10144;50.874;4.762;2023-02-18T01:53:37;3.87;;;2.13;;
19965;SDS011;10144;50.874;4.762;2023-02-18T02:47:10;4.63;;;2.40;;
19965;SDS011;10144;50.874;4.762;2023-02-18T02:53:10;4.97;;;2.37;;
19965;SDS011;10144;50.874;4.762;2023-02-18T02:59:09;5.27;;;2.67;;
19965;SDS011;10144;50.874;4.762;2023-02-18T03:11:16;6.27;;;2.67;;
19965;SDS011;10144;50.874;4.762;2023-02-18T03:17:57;4.70;;;2.27;;
19965;SDS011;10144;50.874;4.762;2023-02-18T03:29:02;4.50;;;2.50;;
19965;SDS011;10144;50.874;4.762;2023-02-18T03:34:59;4.47;;;2.37;;
19965;SDS011;10144;50.874;4.762;2023-02-18T03:40:56;5.63;;;2.07;;
19965;SDS011;10144;50.874;4.762;2023-02-18T03:46:46;4.37;;;2.30;;
19965;SDS011;10144;50.874;4.762;2023-02-18T03:52:35;4.77;;;2.23;;
19965;SDS011;10144;50.874;4.762;2023-02-18T03:58:34;5.27;;;2.40;;
19965;SDS011;10144;50.874;4.762;2023-02-18T04:04:32;7.40;;;2.50;;
19965;SDS011;10144;50.874;4.762;2023-02-18T04:10:22;5.90;;;2.83;;
19965;SDS011;10144;50.874;4.762;2023-02-18T04:22:10;6.70;;;3.27;;
19965;SDS011;10144;50.874;4.762;2023-02-18T04:28:14;5.80;;;2.80;;
19965;SDS011;10144;50.874;4.762;2023-02-18T04:34:04;6.20;;;2.90;;
19965;SDS011;10144;50.874;4.762;2023-02-18T04:39:59;6.33;;;2.83;;
19965;SDS011;10144;50.874;4.762;2023-02-18T04:46:25;5.90;;;3.07;;
19965;SDS011;10144;50.874;4.762;2023-02-18T04:52:23;10.90;;;4.00;;
19965;SDS011;10144;50.874;4.762;2023-02-18T04:58:13;9.20;;;3.87;;
19965;SDS011;10144;50.874;4.762;2023-02-18T05:00:40;8.07;;;3.83;;
19965;SDS011;10144;50.874;4.762;2023-02-18T05:06:30;9.80;;;3.63;;
19965;SDS011;10144;50.874;4.762;2023-02-18T05:12:19;7.50;;;3.50;;
19965;SDS011;10144;50.874;4.762;2023-02-18T05:18:09;7.10;;;3.13;;
19965;SDS011;10144;50.874;4.762;2023-02-18T05:24:01;7.80;;;3.30;;
19965;SDS011;10144;50.874;4.762;2023-02-18T05:29:55;6.10;;;2.87;;
19965;SDS011;10144;50.874;4.762;2023-02-18T05:32:24;7.37;;;2.90;;
19965;SDS011;10144;50.874;4.762;2023-02-18T05:43:44;7.30;;;3.10;;
19965;SDS011;10144;50.874;4.762;2023-02-18T05:49:50;7.70;;;2.50;;
19965;SDS011;10144;50.874;4.762;2023-02-18T05:55:39;5.93;;;2.33;;
19965;SDS011;10144;50.874;4.762;2023-02-18T06:01:28;2.33;;;1.30;;
19965;SDS011;10144;50.874;4.762;2023-02-18T06:07:16;3.40;;;1.57;;
19965;SDS011;10144;50.874;4.762;2023-02-18T06:13:07;7.90;;;2.10;;
19965;SDS011;10144;50.874;4.762;2023-02-18T06:18:55;6.63;;;2.53;;
19965;SDS011;10144;50.874;4.762;2023-02-18T06:24:43;9.50;;;2.10;;
19965;SDS011;10144;50.874;4.762;2023-02-18T06:30:31;10.17;;;2.87;;
19965;SDS011;10144;50.874;4.762;2023-02-18T06:36:20;12.43;;;2.90;;
19965;SDS011;10144;50.874;4.762;2023-02-18T06:38:46;13.40;;;3.20;;
19965;SDS011;10144;50.874;4.762;2023-02-18T06:51:19;14.63;;;2.93;;
19965;SDS011;10144;50.874;4.762;2023-02-18T06:57:07;14.80;;;2.63;;
19965;SDS011;10144;50.874;4.762;2023-02-18T07:02:58;15.23;;;2.97;;
19965;SDS011;10144;50.874;4.762;2023-02-18T07:13:28;20.17;;;2.90;;
19965;SDS011;10144;50.874;4.762;2023-02-18T07:47:09;20.43;;;3.00;;
19965;SDS011;10144;50.874;4.762;2023-02-18T08:06:19;17.57;;;3.00;;
19965;SDS011;10144;50.874;4.762;2023-02-18T08:28:13;14.23;;;2.27;;
19965;SDS011;10144;50.874;4.762;2023-02-18T08:34:03;14.87;;;2.23;;
19965;SDS011;10144;50.874;4.762;2023-02-18T08:39:51;15.83;;;2.50;;
19965;SDS011;10144;50.874;4.762;2023-02-18T08:48:49;11.43;;;1.60;;
19965;SDS011;10144;50.874;4.762;2023-02-18T08:54:44;15.00;;;2.00;;
19965;SDS011;10144;50.874;4.762;2023-02-18T09:00:32;12.43;;;1.90;;
19965;SDS011;10144;50.874;4.762;2023-02-18T09:06:20;9.60;;;1.90;;
19965;SDS011;10144;50.874;4.762;2023-02-18T09:12:09;10.87;;;1.93;;
19965;SDS011;10144;50.874;4.762;2023-02-18T09:17:57;12.07;;;1.70;;
19965;SDS011;10144;50.874;4.762;2023-02-18T09:23:46;9.70;;;1.60;;
19965;SDS011;10144;50.874;4.762;2023-02-18T09:29:36;13.47;;;1.70;;
19965;SDS011;10144;50.874;4.762;2023-02-18T09:35:24;8.37;;;1.67;;
19965;SDS011;10144;50.874;4.762;2023-02-18T09:41:16;7.30;;;1.53;;
19965;SDS011;10144;50.874;4.762;2023-02-18T09:50:47;10.13;;;1.70;;
19965;SDS011;10144;50.874;4.762;2023-02-18T09:56:39;8.97;;;1.90;;
19965;SDS011;10144;50.874;4.762;2023-02-18T10:02:29;5.80;;;1.80;;
19965;SDS011;10144;50.874;4.762;2023-02-18T10:08:28;9.83;;;2.03;;
19965;SDS011;10144;50.874;4.762;2023-02-18T10:14:21;12.23;;;2.43;;
19965;SDS011;10144;50.874;4.762;2023-02-18T10:20:10;16.67;;;2.30;;
19965;SDS011;10144;50.874;4.762;2023-02-18T10:26:11;7.73;;;2.13;;
19965;SDS011;10144;50.874;4.762;2023-02-18T10:32:12;9.10;;;2.53;;
19965;SDS011;10144;50.874;4.762;2023-02-18T10:44:53;10.00;;;2.50;;
19965;SDS011;10144;50.874;4.762;2023-02-18T10:50:51;15.87;;;2.57;;
19965;SDS011;10144;50.874;4.762;2023-02-18T10:56:40;9.80;;;2.70;;
19965;SDS011;10144;50.874;4.762;2023-02-18T11:02:33;10.67;;;2.70;;
19965;SDS011;10144;50.874;4.762;2023-02-18T11:08:24;8.13;;;2.93;;
19965;SDS011;10144;50.874;4.762;2023-02-18T11:14:14;6.47;;;2.70;;
19965;SDS011;10144;50.874;4.762;2023-02-18T11:26:11;10.53;;;3.10;;
19965;SDS011;10144;50.874;4.762;2023-02-18T11:36:03;8.93;;;2.63;;
19965;SDS011;10144;50.874;4.762;2023-02-18T11:42:04;13.53;;;3.03;;
19965;SDS011;10144;50.874;4.762;2023-02-18T11:48:14;12.17;;;2.60;;
19965;SDS011;10144;50.874;4.762;2023-02-18T12:03:53;9.83;;;2.60;;
19965;SDS011;10144;50.874;4.762;2023-02-18T12:06:31;9.43;;;2.73;;
19965;SDS011;10144;50.874;4.762;2023-02-18T12:12:35;11.67;;;3.13;;
19965;SDS011;10144;50.874;4.762;2023-02-18T12:18:37;10.57;;;2.67;;
19965;SDS011;10144;50.874;4.762;2023-02-18T13:12:39;15.63;;;2.67;;
19965;SDS011;10144;50.874;4.762;2023-02-18T13:25:13;9.57;;;2.40;;
19965;SDS011;10144;50.874;4.762;2023-02-18T13:31:11;12.73;;;2.33;;
19965;SDS011;10144;50.874;4.762;2023-02-18T13:37:20;14.00;;;2.73;;
19965;SDS011;10144;50.874;4.762;2023-02-18T13:52:49;8.93;;;2.47;;
19965;SDS011;10144;50.874;4.762;2023-02-18T14:02:27;12.90;;;2.67;;
19965;SDS011;10144;50.874;4.762;2023-02-18T14:22:21;9.93;;;2.50;;
19965;SDS011;10144;50.874;4.762;2023-02-18T14:28:42;10.77;;;2.63;;
19965;SDS011;10144;50.874;4.762;2023-02-18T14:50:31;9.93;;;2.67;;
19965;SDS011;10144;50.874;4.762;2023-02-18T15:01:56;9.60;;;3.07;;
19965;SDS011;10144;50.874;4.762;2023-02-18T16:15:36;10.17;;;3.03;;
19965;SDS011;10144;50.874;4.762;2023-02-18T16:27:21;11.47;;;3.10;;
19965;SDS011;10144;50.874;4.762;2023-02-18T16:33:14;10.50;;;3.47;;
19965;SDS011;10144;50.874;4.762;2023-02-18T16:39:02;11.53;;;3.03;;
19965;SDS011;10144;50.874;4.762;2023-02-18T16:44:50;11.10;;;3.00;;
19965;SDS011;10144;50.874;4.762;2023-02-18T16:50:38;9.87;;;2.93;;
19965;SDS011;10144;50.874;4.762;2023-02-18T17:03:12;11.03;;;2.77;;
19965;SDS011;10144;50.874;4.762;2023-02-18T17:15:51;12.23;;;3.00;;
19965;SDS011;10144;50.874;4.762;2023-02-18T17:21:41;10.87;;;3.20;;
19965;SDS011;10144;50.874;4.762;2023-02-18T17:27:28;8.67;;;3.30;;
19965;SDS011;10144;50.874;4.762;2023-02-18T17:33:17;13.03;;;3.80;;
19965;SDS011;10144;50.874;4.762;2023-02-18T17:39:08;10.53;;;3.70;;
19965;SDS011;10144;50.874;4.762;2023-02-18T17:45:01;13.07;;;4.33;;
19965;SDS011;10144;50.874;4.762;2023-02-18T17:50:50;13.33;;;4.60;;
19965;SDS011;10144;50.874;4.762;2023-02-18T17:56:38;16.33;;;5.33;;
19965;SDS011;10144;50.874;4.762;2023-02-18T18:02:26;11.93;;;5.90;;
19965;SDS011;10144;50.874;4.762;2023-02-18T18:08:14;15.43;;;6.43;;
19965;SDS011;10144;50.874;4.762;2023-02-18T18:14:02;13.97;;;6.90;;
19965;SDS011;10144;50.874;4.762;2023-02-18T18:19:50;15.87;;;7.17;;
19965;SDS011;10144;50.874;4.762;2023-02-18T18:25:39;19.60;;;7.60;;
19965;SDS011;10144;50.874;4.762;2023-02-18T18:31:29;17.07;;;7.83;;
19965;SDS011;10144;50.874;4.762;2023-02-18T18:37:18;18.37;;;8.30;;
19965;SDS011;10144;50.874;4.762;2023-02-18T18:39:44;16.53;;;7.20;;
19965;SDS011;10144;50.874;4.762;2023-02-18T18:45:33;17.53;;;7.37;;
19965;SDS011;10144;50.874;4.762;2023-02-18T18:51:26;13.43;;;6.77;;
19965;SDS011;10144;50.874;4.762;2023-02-18T18:57:15;13.40;;;7.17;;
19965;SDS011;10144;50.874;4.762;2023-02-18T19:03:03;14.73;;;7.07;;
19965;SDS011;10144;50.874;4.762;2023-02-18T19:08:52;15.43;;;7.70;;
19965;SDS011;10144;50.874;4.762;2023-02-18T19:14:40;16.27;;;7.47;;
19965;SDS011;10144;50.874;4.762;2023-02-18T19:20:29;12.87;;;6.70;;
19965;SDS011;10144;50.874;4.762;2023-02-18T19:26:20;14.97;;;7.07;;
19965;SDS011;10144;50.874;4.762;2023-02-18T19:32:09;11.20;;;6.13;;
19965;SDS011;10144;50.874;4.762;2023-02-18T19:37:57;11.13;;;5.97;;
19965;SDS011;10144;50.874;4.762;2023-02-18T19:43:46;12.20;;;6.57;;
19965;SDS011;10144;50.874;4.762;2023-02-18T19:49:34;12.23;;;6.27;;
19965;SDS011;10144;50.874;4.762;2023-02-18T19:55:21;11.97;;;6.70;;
19965;SDS011;10144;50.874;4.762;2023-02-18T20:01:12;11.77;;;6.10;;
19965;SDS011;10144;50.874;4.762;2023-02-18T20:07:02;10.70;;;5.93;;
19965;SDS011;10144;50.874;4.762;2023-02-18T20:12:51;12.10;;;6.07;;
19965;SDS011;10144;50.874;4.762;2023-02-18T20:18:40;11.37;;;5.87;;
19965;SDS011;10144;50.874;4.762;2023-02-18T20:24:28;14.10;;;7.17;;
19965;SDS011;10144;50.874;4.762;2023-02-18T20:30:17;16.80;;;7.63;;
19965;SDS011;10144;50.874;4.762;2023-02-18T20:32:43;18.10;;;9.07;;
19965;SDS011;10144;50.874;4.762;2023-02-18T20:38:31;16.90;;;8.90;;
19965;SDS011;10144;50.874;4.762;2023-02-18T20:44:20;18.43;;;9.83;;
19965;SDS011;10144;50.874;4.762;2023-02-18T20:50:10;16.23;;;9.17;;
19965;SDS011;10144;50.874;4.762;2023-02-18T20:55:59;15.30;;;8.07;;
19965;SDS011;10144;50.874;4.762;2023-02-18T21:01:48;18.33;;;8.50;;
19965;SDS011;10144;50.874;4.762;2023-02-18T21:07:36;16.00;;;8.10;;
19965;SDS011;10144;50.874;4.762;2023-02-18T21:13:24;15.40;;;8.50;;
19965;SDS011;10144;50.874;4.762;2023-02-18T21:19:14;14.40;;;7.50;;
19965;SDS011;10144;50.874;4.762;2023-02-18T21:25:03;16.03;;;7.23;;
19965;SDS011;10144;50.874;4.762;2023-02-18T21:31:14;13.77;;;7.37;;
19965;SDS011;10144;50.874;4.762;2023-02-18T21:37:10;12.67;;;7.17;;
19965;SDS011;10144;50.874;4.762;2023-02-18T21:42:58;16.53;;;8.53;;
19965;SDS011;10144;50.874;4.762;2023-02-18T21:48:47;13.87;;;7.70;;
19965;SDS011;10144;50.874;4.762;2023-02-18T21:54:55;15.90;;;8.30;;
19965;SDS011;10144;50.874;4.762;2023-02-18T22:00:43;16.93;;;8.57;;
19965;SDS011;10144;50.874;4.762;2023-02-18T22:06:32;14.83;;;8.30;;
19965;SDS011;10144;50.874;4.762;2023-02-18T22:12:21;13.63;;;7.00;;
19965;SDS011;10144;50.874;4.762;2023-02-18T22:18:13;14.63;;;7.30;;
19965;SDS011;10144;50.874;4.762;2023-02-18T22:24:18;13.50;;;7.07;;
19965;SDS011;10144;50.874;4.762;2023-02-18T22:30:06;16.13;;;7.53;;
19965;SDS011;10144;50.874;4.762;2023-02-18T22:35:55;16.03;;;8.10;;
19965;SDS011;10144;50.874;4.762;2023-02-18T22:41:51;17.53;;;8.10;;
19965;SDS011;10144;50.874;4.762;2023-02-18T22:47:40;14.37;;;7.13;;
19965;SDS011;10144;50.874;4.762;2023-02-18T22:53:28;15.83;;;8.03;;
19965;SDS011;10144;50.874;4.762;2023-02-18T22:59:16;12.93;;;6.60;;
19965;SDS011;10144;50.874;4.762;2023-02-18T23:05:05;13.40;;;7.07;;
19965;SDS011;10144;50.874;4.762;2023-02-18T23:17:38;10.23;;;5.70;;
19965;SDS011;10144;50.874;4.762;2023-02-18T23:23:26;16.03;;;6.53;;
19965;SDS011;10144;50.874;4.762;2023-02-18T23:29:13;11.60;;;5.77;;
19965;SDS011;10144;50.874;4.762;2023-02-18T23:35:02;13.93;;;6.40;;
19965;SDS011;10144;50.874;4.762;2023-02-18T23:40:49;12.33;;;5.80;;
19965;SDS011;10144;50.874;4.762;2023-02-18T23:46:37;14.27;;;5.93;;
19965;SDS011;10144;50.874;4.762;2023-02-18T23:52:25;14.03;;;6.10;;
19965;SDS011;10144;50.874;4.762;2023-02-18T23:58:14;12.00;;;5.93;;
